Francisco Y Miriam — EA3478 — position and weather

sailwx.info

Track history (hours):
 
Tides and Currents Weather Stations Pressure Air Temp Water Temp Dewpoint Dewpoint Depression Visibility Wind Speed Wind Dir Waves Ship Positions

Francisco Y Miriam

Last reported at 2017-Oct-27 04:52 UTC. Time now 2017-Dec-13 01:43 UTC.
Position N 38°31' E 000°18'.
Warning: this ship's position is 46 days out of date.

Length 18 m.

Type: Fishing. MMSI: 224150820.

Date/timePositionNaut miles runAvg speedWind from/ knotsBaromVisibWave heightAir tempDewpointWater temp
2017-Oct-27 04:52N 38°31' E 000°18'8 2.2
2017-Oct-27 01:14N 38°23' E 000°18'2 8.7
2017-Oct-27 00:59N 38°23' E 000°15'6 2.6
2017-Oct-26 22:46N 38°26' E 000°09'9 0.5
2017-Oct-26 04:45N 38°25' E 000°21'1 0.3
2017-Oct-26 02:48N 38°25' E 000°20'5 8.0
2017-Oct-26 02:13N 38°30' E 000°21'3 7.8
2017-Oct-26 01:51N 38°32' E 000°21'10 0.5
2017-Oct-25 06:04N 38°34' E 000°08'0 7.7
2017-Oct-25 06:00N 38°34' E 000°09'4 7.7
2017-Oct-25 05:29N 38°33' E 000°14'4 7.8
2017-Oct-25 05:00N 38°33' E 000°19'4 5.0
2017-Oct-25 04:18N 38°32' E 000°23'0 0.2
2017-Oct-25 02:56N 38°32' E 000°23'1 3.1
2017-Oct-25 02:29N 38°31' E 000°21'4 8.1
2017-Oct-25 02:00N 38°31' E 000°16'9 7.6
2017-Oct-25 00:52N 38°30' E 000°05'3 7.9
2017-Oct-25 00:28N 38°30' E 000°01'2 4.6
2017-Oct-24 23:56N 38°28' W 000°01'1 2.9
2017-Oct-24 23:27N 38°27' E 000°00'  
Track history (hours):
 
Tides and Currents Weather Stations Pressure Air Temp Water Temp Dewpoint Dewpoint Depression Visibility Wind Speed Wind Dir Waves Ship Positions

Francisco Y Miriam

Last reported at 2017-Oct-27 04:52 UTC. Time now 2017-Dec-13 01:43 UTC.
Position N 38°31' E 000°18'.
Warning: this ship's position is 46 days out of date.

Length 18 m.

Type: Fishing. MMSI: 224150820.

Date/timePositionNaut miles runAvg speedWind from/ knotsBaromVisibWave heightAir tempDewpointWater temp
2017-Oct-27 04:52N 38°31' E 000°18'8 2.2
2017-Oct-27 01:14N 38°23' E 000°18'2 8.7
2017-Oct-27 00:59N 38°23' E 000°15'6 2.6
2017-Oct-26 22:46N 38°26' E 000°09'9 0.5
2017-Oct-26 04:45N 38°25' E 000°21'1 0.3
2017-Oct-26 02:48N 38°25' E 000°20'5 8.0
2017-Oct-26 02:13N 38°30' E 000°21'3 7.8
2017-Oct-26 01:51N 38°32' E 000°21'10 0.5
2017-Oct-25 06:04N 38°34' E 000°08'0 7.7
2017-Oct-25 06:00N 38°34' E 000°09'4 7.7
2017-Oct-25 05:29N 38°33' E 000°14'4 7.8
2017-Oct-25 05:00N 38°33' E 000°19'4 5.0
2017-Oct-25 04:18N 38°32' E 000°23'0 0.2
2017-Oct-25 02:56N 38°32' E 000°23'1 3.1
2017-Oct-25 02:29N 38°31' E 000°21'4 8.1
2017-Oct-25 02:00N 38°31' E 000°16'9 7.6
2017-Oct-25 00:52N 38°30' E 000°05'3 7.9
2017-Oct-25 00:28N 38°30' E 000°01'2 4.6
2017-Oct-24 23:56N 38°28' W 000°01'1 2.9
2017-Oct-24 23:27N 38°27' E 000°00'  

Dump ship's entire track history